Station info - map view · info · telemetry · weather · raw · status · beacons · messages · bulletins · browse · moving · my account
Callsign, ship name or locator: Clear       
It is possible to search using wildcards (*?) after a prefix. Example: OH*
APRS station K7KEZ-9 - show graphs
Map loading...
Comment: 146.520MHz Ron
Mic-E message: In service
Location: 43°41.25' N 116°20.35' W - locator DN13TQ95HA - show map - static map
0.9 miles Southeast bearing 126° from Eagle, Ada County, Idaho, United States [?]
6.8 miles Northwest bearing 312° from Garden City, Ada County, Idaho, United States
8.5 miles Northwest bearing 307° from Boise, Ada County, Idaho, United States
15.1 miles Northeast bearing 48° from Nampa, Canyon County, Idaho, United States
Last position: 2017-08-22 20:30:22 EDT (3h31m ago)
2017-08-22 18:30:22 MDT local time at Eagle, United States [?]
Altitude: 2585 ft
Position ambiguous: Precision reduced at transmitter by 1 digits, position resolution approximately 202.5 yards.
Course: 198°
Speed: 14 MPH
Device: Yaesu: FTM-350 (rig)
Last path: K7KEZ-9>T3TQRZ via WIDE1-1,WIDE2-1,qAR,MERIDN (good)
Positions stored: 16305
Packet rate: 164 seconds between packets on average during 1638 seconds.
Other SSIDs: K7KEZ K7KEZ-7
Stations near current position of K7KEZ-9 - show more
callsign distance last heard - EDT      callsign distance last heard - EDT
N7LGA-91.5 miles 66°2017-08-22 17:54:33 WA7IDO2.1 miles 104°2017-08-16 18:03:27
WA7IDO-i2.1 miles 105°2017-08-15 05:00:10 AB7HP-102.1 miles 162°2017-08-22 23:55:51
147.26+ID2.1 miles 162°2017-08-22 23:35:18 WA7IDO-72.1 miles 105°2017-08-22 22:18:32
KD7KKC-92.3 miles 151°2017-08-22 18:06:53 KD7YUR2.8 miles 265°2017-07-29 08:06:03
DW00483.2 miles 286°2017-08-22 23:54:11 KD7HGS3.5 miles 208°2017-08-07 09:54:32
KD7HGS-93.5 miles 208°2017-08-22 15:23:40 KF4ORW3.8 miles 189°2017-08-23 00:01:15
KG7AAV-94.1 miles 191°2017-08-22 21:37:38 W7JZU B4.2 miles 108°2017-08-22 23:44:30
W7JZU-B4.2 miles 108°2017-08-22 23:44:40 W7JZU-P4.2 miles 109°2017-08-19 19:36:48
WA7IDO-i4.4 miles 190°2017-08-19 16:58:58 CW90094.7 miles 235°2017-08-23 00:00:46
KD7PIT-54.8 miles 235°2017-08-21 19:45:16 KD7PIT-14.8 miles 235°2017-08-11 00:02:06
Stations which heard K7KEZ-9 directly on radio –
callsign pkts first heard - EDT last heard longest (tx => rx) longest at - EDT
BULLMT 4 2017-08-06 20:43:01 2017-08-08 16:02:13 CN85RM > CN85OK 15.2 miles 238° 2017-08-06 20:50:16
SNOBNK 72 2017-08-02 16:04:13 2017-08-22 20:11:15 DN13QO > DN14WK 62.3 miles 21° 2017-08-03 15:50:46
WOLF 2 2017-08-06 20:30:50 2017-08-06 20:33:48 CN85PM > CN83VO 132.4 miles 170° 2017-08-06 20:33:48
LAGRND 3 2017-08-06 12:24:44 2017-08-06 12:29:16 DN05WI > DN15BK 13.8 miles 62° 2017-08-06 12:29:16
BKRCTY 10 2017-08-06 11:40:18 2017-08-08 21:46:05 DN14JF > DN14DR 45.0 miles 321° 2017-08-08 21:46:05
KB7WUK 7 2017-08-06 20:45:23 2017-08-08 16:02:14 CN85RN > CN85RN 2.1 miles 301° 2017-08-08 16:02:14
MISION 4 2017-08-06 12:57:08 2017-08-08 19:52:03 DN05QO > CN97TG 145.0 miles 324° 2017-08-06 12:57:08
WA2WA 11 2017-08-06 13:04:22 2017-08-08 19:40:03 DN05AT > DN06XB 96.5 miles 78° 2017-08-06 14:02:08
KC7ILK 3 2017-08-06 18:54:12 2017-08-06 23:17:22 CN85QM > CN85QP 10.1 miles 9° 2017-08-06 18:54:12
REDMTN 3 2017-08-06 20:36:54 2017-08-06 23:30:29 CN85QL > CN95CW 50.5 miles 53° 2017-08-06 23:30:29
KE7BKK-10 14 2017-08-03 09:53:05 2017-08-19 18:54:55 DN13TQ > DN13WN 11.9 miles 132° 2017-08-08 23:27:34
LOKOUT 25 2017-08-06 14:45:02 2017-08-08 18:10:53 CN95VR > CN85WT 91.8 miles 274° 2017-08-08 18:10:53
K7OZD 72 2017-07-31 21:13:32 2017-08-14 18:05:31 DN13QP > DN13TN 14.8 miles 109° 2017-08-06 10:26:23
WAHAT 2 2017-08-06 12:55:37 2017-08-06 12:58:39 DN05RO > DN06FT 96.7 miles 331° 2017-08-06 12:55:37
RHODY 1 2017-08-06 18:37:36 2017-08-06 18:37:36 CN85SM > CN95BH 30.4 miles 119° 2017-08-06 18:37:36
W7SRA 1 2017-08-06 18:29:58 2017-08-06 18:29:58 CN85UM > CN84KU 62.2 miles 220° 2017-08-06 18:29:58
KC7LHV-11 48 2017-08-01 13:01:42 2017-08-17 15:43:33 DN13SO > DN13QP 8.3 miles 297° 2017-08-17 10:42:42
SPOUT 23 2017-08-06 11:50:54 2017-08-08 21:05:07 DN05BT > DN05XR 89.2 miles 93° 2017-08-08 18:24:33
N7BDW-10 2 2017-08-06 20:21:50 2017-08-08 15:02:43 CN85QL > CN85PR 16.9 miles 352° 2017-08-06 20:21:50
N7TNG-1 13 2017-08-06 18:42:09 2017-08-08 15:00:59 CN85QL > CN85PP 12.2 miles 351° 2017-08-07 14:10:07
W7RWP 12 2017-08-06 18:52:40 2017-08-08 15:54:07 CN85PN > CN85RI 15.3 miles 160° 2017-08-08 14:54:48
NB7O-1 15 2017-08-06 13:25:37 2017-08-08 19:21:25 DN05JS > DN05HU 7.7 miles 309° 2017-08-06 13:25:37
KI7GKH-1 2 2017-08-07 23:13:06 2017-08-07 23:26:03 CN85QK > CN85QK 0.5 miles 143° 2017-08-07 23:13:06
BALDPK 9 2017-08-06 16:12:46 2017-08-08 16:25:05 CN85XO > CN85LJ 51.6 miles 254° 2017-08-08 16:25:05
AD7DQ-10 3 2017-08-03 13:32:08 2017-08-16 15:07:36 DN13RO > DN13VV 27.8 miles 41° 2017-08-03 13:32:08
W7FAB 1 2017-08-08 15:50:14 2017-08-08 15:50:14 CN85PM > CN85QL 5.1 miles 130° 2017-08-08 15:50:14
KF7WRS-10 38 2017-08-06 18:48:24 2017-08-08 16:14:28 CN85UN > CN85RL 15.2 miles 257° 2017-08-08 16:14:28
MERIDN 295 2017-07-31 21:12:01 2017-08-22 20:30:22 DN14KE > DN13TO 56.1 miles 137° 2017-08-06 11:03:52
BEAVRT 3 2017-08-08 14:35:19 2017-08-08 14:42:40 CN85PK > CN85OK 7.9 miles 266° 2017-08-08 14:37:43
N7AWM 36 2017-08-06 15:11:30 2017-08-08 17:37:57 CN95EQ > CN95JP 19.6 miles 99° 2017-08-06 15:48:24
SADDLE 1 2017-08-06 18:15:20 2017-08-06 18:15:20 CN85WN > CN85HN 61.2 miles 269° 2017-08-06 18:15:20
JUPITR 4 2017-08-06 20:41:27 2017-08-06 20:53:47 CN85RN > CN87MQ 148.4 miles 353° 2017-08-06 20:53:47
W7DG-5 2 2017-08-06 20:35:23 2017-08-06 20:40:12 CN85QM > CN86ME 48.1 miles 340° 2017-08-06 20:40:12
KK7DS-1 8 2017-08-06 23:27:59 2017-08-08 15:45:11 CN85PN > CN85RL 11.7 miles 130° 2017-08-08 15:42:58
K7RMO-1 14 2017-08-06 16:29:06 2017-08-08 16:24:19 CN85WN > CN85MI 42.1 miles 247° 2017-08-06 16:29:06

Only position packets which were originated by the station are shown here. The range statistics show some extra long hops, because some digipeaters do not correctly add themselves to the digipeater path. Please check the raw packets.
About this site
This page shows real-time information collected from the Automatic Position Reporting System Internet network (APRS-IS). APRS is used by amateur (ham) radio operators to transmit real-time position information, weather data, telemetry and messages over the radio. A vehicle equipped with a GPS receiver, a VHF transmitter or HF transceiver and a small computer device called a tracker transmits it's location, speed and course in a small data packet, which is then received by a nearby iGate receiving site which forwards the packet on the Internet. Systems connected to the Internet can send information on the APRS-IS without a radio transmitter, or collect and display information transmitted anywhere in the world.
FAQ · Blog · Discussion group · Linking to aprs.fi · AIS sites · Service status · Database statistics · Advertising on aprs.fi · Technical details · API · Change log · Planned changes · Credits and thanks · Terms Of Service · iPhone/iPad APRS